createdAt,value
2018-11-02T00:11:10.118Z,60.4
2018-11-02T00:27:58.232Z,60.4
2018-11-02T00:44:46.338Z,60.4
2018-11-02T01:01:34.513Z,60.4
2018-11-02T01:18:22.514Z,60.4
2018-11-02T01:35:10.641Z,60.4
2018-11-02T01:51:58.623Z,60.4
2018-11-02T02:08:46.569Z,60.4
2018-11-02T02:25:34.508Z,60.4
2018-11-02T02:42:22.378Z,60.4
2018-11-02T02:59:10.186Z,60.4
2018-11-02T03:15:58.284Z,60.0
2018-11-02T03:32:45.891Z,60.0
2018-11-02T03:49:33.978Z,60.0
2018-11-02T04:06:21.182Z,59.6
2018-11-02T04:23:08.831Z,60.0
2018-11-02T04:39:56.543Z,60.0
2018-11-02T04:56:44.146Z,60.0
2018-11-02T05:13:31.390Z,59.6
2018-11-02T05:30:18.655Z,59.6
2018-11-02T05:47:06.024Z,59.6
2018-11-02T06:03:53.202Z,59.6
2018-11-02T06:20:40.627Z,59.6
2018-11-02T06:37:28.263Z,59.2
2018-11-02T06:54:15.456Z,59.2
2018-11-02T07:11:02.927Z,59.2
2018-11-02T07:27:50.494Z,58.8
2018-11-02T07:44:37.727Z,58.8
2018-11-02T08:01:25.079Z,58.8
2018-11-02T08:18:13.345Z,58.8
2018-11-02T08:35:00.811Z,58.8
2018-11-02T08:51:48.562Z,58.8
2018-11-02T09:08:36.558Z,58.8
2018-11-02T09:25:25.230Z,58.8
2018-11-02T09:42:12.595Z,58.8
2018-11-02T09:59:00.605Z,59.2
2018-11-02T10:15:49.786Z,59.2
2018-11-02T10:32:38.162Z,59.2
2018-11-02T10:49:26.820Z,59.2
2018-11-02T11:06:16.444Z,59.2
2018-11-02T11:23:04.082Z,59.2
2018-11-02T11:39:53.081Z,59.2
2018-11-02T11:56:41.350Z,59.2
2018-11-02T12:13:30.015Z,59.2
2018-11-02T12:30:18.904Z,60.0
2018-11-02T12:47:07.589Z,60.4
2018-11-02T13:03:56.527Z,60.8
2018-11-02T13:20:45.703Z,60.8
2018-11-02T13:37:34.787Z,60.8
2018-11-02T13:54:23.549Z,61.6
2018-11-02T14:11:12.477Z,62.0
2018-11-02T14:28:01.482Z,62.4
2018-11-02T14:44:51.120Z,62.8
2018-11-02T15:01:39.355Z,62.4
2018-11-02T15:18:28.269Z,62.4
2018-11-02T15:35:17.062Z,62.4
2018-11-02T15:52:05.805Z,62.4
2018-11-02T16:08:54.638Z,62.4
2018-11-02T16:25:43.462Z,62.4
2018-11-02T16:42:32.074Z,62.8
2018-11-02T16:59:20.616Z,62.8
2018-11-02T17:16:08.844Z,62.8
2018-11-02T17:32:56.761Z,62.4
2018-11-02T17:49:44.923Z,62.4
2018-11-02T18:06:32.693Z,62.4
2018-11-02T18:23:20.702Z,62.0
2018-11-02T18:40:08.298Z,61.6
2018-11-02T18:56:56.026Z,61.6
2018-11-02T19:13:43.533Z,61.6
2018-11-02T19:30:31.234Z,61.6
2018-11-02T19:47:18.789Z,61.6
2018-11-02T20:04:06.375Z,61.6
2018-11-02T20:20:54.574Z,61.2
2018-11-02T20:37:41.227Z,61.2
2018-11-02T20:54:28.382Z,61.2
2018-11-02T21:11:15.751Z,60.8
2018-11-02T21:28:03.001Z,60.8
2018-11-02T21:44:50.658Z,60.8
2018-11-02T22:01:37.348Z,60.8
2018-11-02T22:18:24.405Z,60.4
2018-11-02T22:35:11.415Z,60.4
2018-11-02T22:51:58.501Z,60.4
2018-11-02T23:08:45.364Z,60.4
2018-11-02T23:25:32.173Z,60.4
2018-11-02T23:42:19.018Z,60.4
2018-11-02T23:59:05.611Z,60.4
